Lingling, China
Current Conditions -  °F | °C
As of 7:00 PM on Sunday 23 Nov 2014 (Local Time) from ZGKL Reporting Station
Haze Haze  
Wind Chill: 70°   Ceiling: Unl
Heat Index: 70°   Visibility: 1.8mi
Dew Point: 64°   Wind: 2mph
Humidity: 83%   Direction: 280°W
Pressure: 29.94"   Gusts: NA
Location:  26.23°N, 111.62°E
Report Text: ZGKL 231100Z 28001MPS 3000 BR NSC 21/18 Q1014 BECMG FM12002500
Loading
Personal Weather Stations






























Interactive Weather Map New forecast layout! Learn more

10-Day Weather Forecast

Advertisements
Track Severe Weather on mobile